Aviation Digital Data Service (ADDS)

Output produced by METARs form (0610 UTC 25 August 2016)
found at http://www.aviationweather.gov/adds/metars/
 
KCMI 250525Z 2506/2606 22005KT 6SM BR VCSH SCT040 BKN120 
     FM251000 20004KT 4SM BR VCTS SCT007CB BKN100 
     FM251800 26008KT P6SM BKN045 
     FM260100 29005KT P6SM SCT050 OVC250